Afton, Minnesota
Current Conditions -  °F | °C
As of 12:51 PM on Wednesday 26 Nov 2014 (Local Time) from K21D Reporting Station
Light Snow Light Snow  
Wind Chill: -2°   Ceiling: 1200
Heat Index: -2°   Visibility: 7mi
Dew Point: -5°   Wind: 3mph
Humidity: 80%   Direction: 10°N
Pressure: 30.19"   Gusts: NA
Location:  44.9°N, 92.78°W
Report Text: K21D 261851Z AUTO 01003KT 7SM -SN BKN012 OVC029 M02/M05 A3019 RMK AO2
Loading
Personal Weather Stations






























Interactive Weather Map New forecast layout! Learn more

10-Day Weather Forecast

Advertisements
Track Severe Weather on mobile